createdAt,value
2022-11-14T00:01:10.784Z,9.97
2022-11-14T00:04:04.086Z,9.00
2022-11-14T00:06:50.080Z,9.10
2022-11-14T00:09:36.293Z,8.80
2022-11-14T00:12:22.309Z,9.00
2022-11-14T00:15:36.326Z,8.73
2022-11-14T00:18:42.628Z,8.87
2022-11-14T00:21:30.330Z,9.63
2022-11-14T00:24:16.362Z,9.40
2022-11-14T00:27:02.313Z,8.70
2022-11-14T00:29:48.337Z,8.93
2022-11-14T00:35:29.601Z,8.43
2022-11-14T00:38:17.058Z,8.30
2022-11-14T00:41:02.845Z,9.23
2022-11-14T00:47:23.404Z,9.53
2022-11-14T00:50:10.620Z,9.30
2022-11-14T00:52:56.645Z,8.33
2022-11-14T00:55:44.318Z,8.33
2022-11-14T00:58:30.856Z,8.53
2022-11-14T01:01:17.687Z,9.70
2022-11-14T01:04:03.714Z,8.30
2022-11-14T01:06:49.754Z,9.03
2022-11-14T01:09:35.761Z,8.47
2022-11-14T01:12:23.418Z,8.67
2022-11-14T01:15:10.576Z,8.57
2022-11-14T01:18:12.297Z,9.00
2022-11-14T01:21:16.717Z,7.93
2022-11-14T01:24:17.793Z,8.37
2022-11-14T01:27:04.235Z,8.13
2022-11-14T01:29:51.989Z,8.57
2022-11-14T01:32:38.373Z,7.90
2022-11-14T01:35:23.978Z,8.10
2022-11-14T01:41:00.273Z,8.47
2022-11-14T01:43:46.223Z,8.53
2022-11-14T01:46:34.644Z,7.03
2022-11-14T01:49:22.221Z,8.63
2022-11-14T01:52:15.384Z,6.80
2022-11-14T01:55:23.739Z,6.73
2022-11-14T01:58:24.065Z,7.47
2022-11-14T02:01:10.363Z,8.23
2022-11-14T02:03:58.056Z,7.73
2022-11-14T02:06:44.357Z,8.20
2022-11-14T02:09:40.509Z,7.50
2022-11-14T02:12:26.206Z,6.27
2022-11-14T02:15:12.461Z,7.57
2022-11-14T02:17:58.912Z,8.60
2022-11-14T02:20:46.120Z,7.27
2022-11-14T02:23:33.105Z,7.70
2022-11-14T02:26:20.135Z,7.77
2022-11-14T02:29:06.687Z,9.30
2022-11-14T02:31:52.681Z,7.80
2022-11-14T02:34:54.362Z,7.77
2022-11-14T02:38:00.460Z,7.67
2022-11-14T02:40:46.700Z,7.73
2022-11-14T02:43:32.741Z,7.63
2022-11-14T02:46:18.514Z,9.33
2022-11-14T02:49:04.843Z,8.23
2022-11-14T02:52:00.181Z,8.20
2022-11-14T02:54:51.662Z,7.40
2022-11-14T02:57:39.921Z,7.17
2022-11-14T03:00:26.232Z,8.93
2022-11-14T03:07:00.511Z,8.03
2022-11-14T03:09:47.928Z,7.70
2022-11-14T03:12:34.013Z,8.17
2022-11-14T03:15:20.170Z,7.30
2022-11-14T03:18:06.037Z,7.53
2022-11-14T03:20:51.619Z,8.67
2022-11-14T03:23:37.969Z,8.47
2022-11-14T03:26:25.589Z,7.57
2022-11-14T03:29:11.360Z,7.13
2022-11-14T03:32:29.292Z,6.57
2022-11-14T03:38:44.733Z,8.00
2022-11-14T03:41:32.303Z,7.90
2022-11-14T03:44:18.253Z,8.43
2022-11-14T03:47:04.367Z,7.23
2022-11-14T03:49:50.481Z,9.20
2022-11-14T03:52:42.055Z,9.00
2022-11-14T03:55:28.167Z,8.80
2022-11-14T03:58:15.768Z,9.23
2022-11-14T04:01:07.104Z,9.07
2022-11-14T04:04:12.322Z,8.87
2022-11-14T04:07:03.423Z,8.13
2022-11-14T04:09:49.217Z,8.60
2022-11-14T04:12:34.928Z,9.53
2022-11-14T04:15:22.115Z,9.47
2022-11-14T04:18:07.869Z,8.90
2022-11-14T04:23:36.045Z,8.40
2022-11-14T04:26:22.028Z,8.63
2022-11-14T04:29:07.978Z,8.00
2022-11-14T04:31:55.526Z,9.90
2022-11-14T04:34:41.922Z,9.37
2022-11-14T04:40:56.858Z,9.77
2022-11-14T04:43:46.759Z,8.20
2022-11-14T04:46:35.577Z,10.53
2022-11-14T04:49:23.183Z,10.97
2022-11-14T04:52:18.518Z,10.13
2022-11-14T04:55:04.736Z,10.63
2022-11-14T04:57:54.117Z,10.67
2022-11-14T05:00:40.073Z,10.83
2022-11-14T05:03:25.882Z,10.47
2022-11-14T05:06:18.628Z,10.63
2022-11-14T05:09:04.682Z,10.50
2022-11-14T05:11:50.265Z,10.27
2022-11-14T05:14:35.877Z,9.30
2022-11-14T05:21:11.580Z,9.43
2022-11-14T05:23:58.724Z,11.43
2022-11-14T05:26:44.439Z,11.40
2022-11-14T05:29:30.099Z,11.50
2022-11-14T05:32:16.763Z,10.47
2022-11-14T05:37:56.043Z,10.73
2022-11-14T05:40:45.952Z,11.50
2022-11-14T05:43:31.746Z,10.77
2022-11-14T05:46:38.579Z,11.93
2022-11-14T05:49:39.910Z,12.07
2022-11-14T05:52:25.821Z,11.50
2022-11-14T05:55:12.157Z,11.80
2022-11-14T05:58:00.345Z,12.20
2022-11-14T06:00:52.196Z,10.87
2022-11-14T06:03:40.759Z,12.03
2022-11-14T06:06:32.487Z,13.17
2022-11-14T06:09:18.821Z,12.93
2022-11-14T06:12:05.190Z,12.33
2022-11-14T06:14:58.671Z,13.87
2022-11-14T06:17:57.022Z,12.10
2022-11-14T06:20:46.822Z,11.90
2022-11-14T06:23:32.693Z,13.67
2022-11-14T06:26:21.478Z,13.40
2022-11-14T06:29:07.467Z,14.37
2022-11-14T06:31:55.039Z,13.57
2022-11-14T06:34:40.886Z,14.07
2022-11-14T06:37:29.388Z,14.43
2022-11-14T06:40:18.573Z,13.80
2022-11-14T06:43:04.138Z,13.27
2022-11-14T06:45:49.612Z,14.57
2022-11-14T06:48:37.043Z,12.97
2022-11-14T06:51:22.786Z,13.27
2022-11-14T06:54:12.025Z,13.70
2022-11-14T06:56:58.038Z,12.90
2022-11-14T06:59:43.610Z,13.50
2022-11-14T07:02:29.013Z,12.50
2022-11-14T07:05:15.996Z,14.30
2022-11-14T07:08:01.795Z,5.80
2022-11-14T07:10:47.340Z,13.13
2022-11-14T07:13:33.617Z,12.97
2022-11-14T07:16:19.948Z,13.03
2022-11-14T07:21:49.335Z,12.40
2022-11-14T07:24:35.289Z,12.23
2022-11-14T07:27:21.487Z,14.43
2022-11-14T07:30:07.988Z,13.37
2022-11-14T07:32:57.357Z,13.23
2022-11-14T07:39:38.172Z,13.50
2022-11-14T07:42:29.366Z,12.40
2022-11-14T07:45:15.466Z,12.47
2022-11-14T07:48:02.810Z,10.07
2022-11-14T07:50:49.310Z,12.53
2022-11-14T07:56:34.009Z,12.90
2022-11-14T07:59:21.440Z,12.07
2022-11-14T08:02:07.237Z,11.47
2022-11-14T08:04:53.010Z,11.67
2022-11-14T08:07:39.255Z,11.90
2022-11-14T08:10:47.924Z,11.40
2022-11-14T08:13:49.041Z,11.27
2022-11-14T08:16:36.102Z,12.17
2022-11-14T08:19:21.933Z,12.00
2022-11-14T08:22:07.605Z,11.23
2022-11-14T08:24:53.367Z,12.20
2022-11-14T08:27:38.966Z,12.90
2022-11-14T08:30:25.117Z,10.93
2022-11-14T08:33:12.300Z,13.13
2022-11-14T08:36:00.945Z,13.00
2022-11-14T08:39:01.966Z,11.37
2022-11-14T08:42:10.197Z,11.63
2022-11-14T08:45:05.943Z,11.77
2022-11-14T08:47:52.434Z,11.60
2022-11-14T08:50:39.886Z,12.50
2022-11-14T08:53:25.750Z,10.97
2022-11-14T08:56:11.608Z,12.37
2022-11-14T09:01:45.898Z,11.30
2022-11-14T09:04:32.021Z,12.17
2022-11-14T09:07:19.623Z,10.73
2022-11-14T09:10:06.348Z,11.47
2022-11-14T09:16:25.591Z,10.67
2022-11-14T09:19:31.201Z,11.03
2022-11-14T09:22:18.558Z,11.07
2022-11-14T09:25:04.437Z,10.37
2022-11-14T09:28:06.431Z,11.23
2022-11-14T09:30:52.594Z,11.53
2022-11-14T09:33:39.944Z,11.73
2022-11-14T09:36:25.629Z,11.30
2022-11-14T09:39:13.129Z,10.37
2022-11-14T09:42:07.109Z,10.80
2022-11-14T09:44:55.436Z,10.30
2022-11-14T09:47:43.498Z,10.97
2022-11-14T09:50:31.133Z,9.93
2022-11-14T09:53:31.758Z,11.33
2022-11-14T09:56:38.005Z,9.73
2022-11-14T09:59:34.404Z,10.07
2022-11-14T10:02:24.395Z,9.43
2022-11-14T10:05:28.398Z,11.07
2022-11-14T10:08:21.573Z,11.67
2022-11-14T10:11:10.084Z,11.20
2022-11-14T10:14:17.187Z,9.00
2022-11-14T10:17:10.981Z,11.07
2022-11-14T10:20:01.599Z,10.33
2022-11-14T10:23:01.378Z,11.23
2022-11-14T10:25:51.761Z,9.90
2022-11-14T10:32:32.047Z,10.50
2022-11-14T10:35:19.817Z,10.83
2022-11-14T10:38:10.538Z,11.03
2022-11-14T10:40:59.851Z,11.30
2022-11-14T10:43:47.533Z,10.07
2022-11-14T10:46:34.758Z,10.87
2022-11-14T10:49:22.213Z,10.67
2022-11-14T10:52:13.860Z,9.57
2022-11-14T10:55:01.108Z,12.50
2022-11-14T10:57:47.241Z,9.87
2022-11-14T11:00:33.298Z,11.60
2022-11-14T11:03:41.092Z,10.97
2022-11-14T11:10:00.337Z,9.70
2022-11-14T11:12:47.740Z,9.40
2022-11-14T11:15:40.396Z,10.50
2022-11-14T11:18:41.614Z,10.50
2022-11-14T11:21:27.585Z,10.97
2022-11-14T11:24:15.234Z,12.13
2022-11-14T11:27:20.466Z,13.17
2022-11-14T11:30:18.543Z,12.27
2022-11-14T11:33:23.480Z,12.77
2022-11-14T11:36:12.841Z,13.83
2022-11-14T11:38:58.541Z,11.83
2022-11-14T11:48:32.829Z,14.00
2022-11-14T11:51:21.359Z,12.33
2022-11-14T11:54:12.809Z,14.23
2022-11-14T11:57:01.474Z,14.90
2022-11-14T11:59:49.406Z,13.10
2022-11-14T12:05:32.029Z,15.17
2022-11-14T12:08:22.323Z,14.10
2022-11-14T12:11:10.761Z,13.07
2022-11-14T12:21:10.416Z,10.10
2022-11-14T12:24:23.709Z,13.10
2022-11-14T12:27:19.949Z,12.30
2022-11-14T12:30:10.989Z,13.47
2022-11-14T12:32:58.935Z,12.20
2022-11-14T12:35:49.753Z,11.93
2022-11-14T12:38:41.643Z,12.10
2022-11-14T12:41:28.923Z,11.27
2022-11-14T12:44:21.114Z,13.40
2022-11-14T12:47:27.128Z,10.90
2022-11-14T12:54:08.341Z,11.00
2022-11-14T12:57:00.837Z,11.43
2022-11-14T12:59:58.274Z,11.70
2022-11-14T13:02:59.355Z,11.93
2022-11-14T13:05:52.793Z,11.90
2022-11-14T13:08:59.906Z,12.10
2022-11-14T13:11:46.792Z,14.03
2022-11-14T13:14:33.158Z,14.67
2022-11-14T13:17:26.194Z,14.70
2022-11-14T13:20:29.411Z,12.47
2022-11-14T13:30:09.282Z,12.90
2022-11-14T13:32:56.612Z,13.97
2022-11-14T13:35:49.606Z,11.40
2022-11-14T13:38:50.561Z,13.07
2022-11-14T13:45:12.387Z,13.70
2022-11-14T13:48:10.942Z,13.57
2022-11-14T13:51:06.375Z,11.33
2022-11-14T13:54:04.084Z,10.20
2022-11-14T13:57:11.937Z,10.57
2022-11-14T14:03:39.364Z,12.33
2022-11-14T14:06:34.960Z,11.07
2022-11-14T14:09:23.826Z,11.80
2022-11-14T14:12:24.074Z,13.63
2022-11-14T14:15:14.888Z,13.43
2022-11-14T14:18:06.952Z,10.93
2022-11-14T14:20:59.053Z,10.90
2022-11-14T14:23:48.362Z,11.10
2022-11-14T14:30:27.545Z,11.30
2022-11-14T14:33:13.918Z,12.43
2022-11-14T14:36:01.246Z,13.17
2022-11-14T14:38:47.705Z,7.87
2022-11-14T14:41:33.842Z,11.87
2022-11-14T14:44:27.304Z,11.23
2022-11-14T14:47:17.287Z,10.33
2022-11-14T14:50:04.450Z,10.97
2022-11-14T14:52:57.589Z,12.43
2022-11-14T14:55:52.545Z,11.40
2022-11-14T14:59:09.345Z,14.20
2022-11-14T15:02:14.257Z,12.73
2022-11-14T15:05:00.989Z,11.03
2022-11-14T15:07:46.956Z,11.43
2022-11-14T15:10:34.190Z,10.87
2022-11-14T15:13:20.881Z,11.10
2022-11-14T15:16:07.743Z,12.00
2022-11-14T15:18:54.847Z,10.73
2022-11-14T15:21:40.837Z,10.83
2022-11-14T15:24:26.730Z,10.90
2022-11-14T15:30:56.779Z,10.53
2022-11-14T15:33:42.525Z,12.10
2022-11-14T15:36:29.096Z,10.47
2022-11-14T15:39:24.798Z,11.33
2022-11-14T15:42:14.183Z,11.10
2022-11-14T15:47:43.804Z,11.03
2022-11-14T15:50:31.071Z,11.70
2022-11-14T15:53:19.033Z,12.13
2022-11-14T15:56:05.258Z,11.73
2022-11-14T15:58:51.648Z,11.67
2022-11-14T16:05:53.419Z,10.97
2022-11-14T16:08:39.714Z,12.67
2022-11-14T16:11:25.482Z,11.30
2022-11-14T16:14:11.498Z,14.10
2022-11-14T16:16:57.761Z,14.07
2022-11-14T16:19:43.854Z,13.30
2022-11-14T16:22:31.173Z,14.17
2022-11-14T16:25:18.758Z,15.23
2022-11-14T16:28:04.997Z,15.17
2022-11-14T16:30:51.038Z,15.80
2022-11-14T16:33:36.927Z,12.70
2022-11-14T16:36:26.024Z,4.90
2022-11-14T16:39:18.592Z,12.40
2022-11-14T16:42:04.374Z,11.97
2022-11-14T16:44:50.930Z,12.13
2022-11-14T16:47:36.961Z,10.20
2022-11-14T16:50:22.544Z,10.20
2022-11-14T16:53:08.383Z,11.87
2022-11-14T16:55:55.558Z,12.70
2022-11-14T16:58:41.098Z,11.73
2022-11-14T17:01:26.606Z,13.40
2022-11-14T17:04:12.204Z,14.13
2022-11-14T17:06:57.915Z,13.23
2022-11-14T17:09:43.502Z,14.87
2022-11-14T17:12:31.286Z,14.67
2022-11-14T17:15:17.634Z,14.77
2022-11-14T17:18:03.633Z,14.40
2022-11-14T17:20:49.714Z,15.77
2022-11-14T17:23:35.498Z,15.90
2022-11-14T17:26:21.404Z,15.70
2022-11-14T17:29:09.252Z,14.83
2022-11-14T17:31:55.302Z,15.57
2022-11-14T17:34:41.068Z,15.10
2022-11-14T17:37:27.389Z,16.40
2022-11-14T17:40:15.762Z,13.70
2022-11-14T17:43:01.832Z,12.43
2022-11-14T17:45:55.923Z,11.60
2022-11-14T17:48:41.667Z,10.33
2022-11-14T17:51:27.932Z,9.83
2022-11-14T17:54:14.012Z,11.57
2022-11-14T17:57:00.312Z,9.40
2022-11-14T17:59:46.593Z,10.17
2022-11-14T18:02:33.724Z,11.27
2022-11-14T18:05:19.557Z,9.13
2022-11-14T18:08:05.273Z,9.93
2022-11-14T18:10:51.231Z,11.40
2022-11-14T18:13:36.915Z,9.63
2022-11-14T18:16:22.710Z,11.07
2022-11-14T18:19:09.776Z,10.50
2022-11-14T18:21:55.611Z,12.67
2022-11-14T18:24:54.005Z,9.57
2022-11-14T18:27:40.616Z,12.00
2022-11-14T18:30:40.971Z,12.40
2022-11-14T18:33:27.758Z,11.97
2022-11-14T18:36:37.417Z,13.33
2022-11-14T18:39:30.390Z,14.47
2022-11-14T18:42:16.326Z,15.00
2022-11-14T18:45:02.483Z,15.47
2022-11-14T18:47:48.275Z,15.67
2022-11-14T18:50:34.580Z,16.57
2022-11-14T18:53:38.869Z,13.27
2022-11-14T18:56:26.385Z,22.97
2022-11-14T18:59:12.656Z,21.73
2022-11-14T19:01:58.526Z,17.50
2022-11-14T19:05:04.447Z,19.10
2022-11-14T19:08:02.597Z,20.20
2022-11-14T19:10:48.953Z,18.63
2022-11-14T19:13:36.177Z,19.40
2022-11-14T19:16:22.157Z,19.90
2022-11-14T19:19:09.192Z,16.73
2022-11-14T19:21:55.342Z,17.27
2022-11-14T19:24:41.318Z,18.57
2022-11-14T19:27:27.614Z,18.47
2022-11-14T19:30:15.472Z,19.17
2022-11-14T19:33:03.585Z,22.77
2022-11-14T19:35:49.923Z,22.27
2022-11-14T19:38:45.010Z,20.93
2022-11-14T19:41:53.288Z,23.80
2022-11-14T19:44:45.529Z,24.70
2022-11-14T19:47:31.259Z,23.20
2022-11-14T19:50:18.382Z,25.17
2022-11-14T19:53:04.142Z,22.90
2022-11-14T19:55:49.913Z,23.80
2022-11-14T19:58:36.342Z,21.97
2022-11-14T20:01:23.489Z,21.63
2022-11-14T20:04:11.861Z,19.33
2022-11-14T20:06:59.329Z,20.33
2022-11-14T20:09:57.624Z,21.87
2022-11-14T20:12:58.981Z,22.47
2022-11-14T20:15:44.717Z,21.73
2022-11-14T20:18:30.366Z,23.60
2022-11-14T20:21:16.851Z,21.27
2022-11-14T20:24:03.909Z,22.10
2022-11-14T20:29:45.615Z,20.23
2022-11-14T20:32:31.802Z,18.67
2022-11-14T20:35:20.495Z,21.37
2022-11-14T20:38:06.552Z,21.40
2022-11-14T20:40:57.360Z,21.50
2022-11-14T20:47:31.190Z,17.70
2022-11-14T20:50:17.371Z,22.23
2022-11-14T20:53:03.385Z,21.67
2022-11-14T20:55:53.213Z,17.97
2022-11-14T20:58:46.285Z,20.13
2022-11-14T21:01:32.287Z,18.30
2022-11-14T21:04:18.311Z,20.70
2022-11-14T21:07:04.219Z,21.03
2022-11-14T21:09:50.166Z,22.67
2022-11-14T21:12:49.449Z,21.27
2022-11-14T21:15:36.612Z,20.07
2022-11-14T21:18:22.263Z,23.43
2022-11-14T21:21:08.704Z,19.33
2022-11-14T21:24:16.621Z,22.13
2022-11-14T21:27:17.703Z,20.47
2022-11-14T21:30:03.805Z,21.93
2022-11-14T21:32:53.431Z,16.63
2022-11-14T21:35:39.426Z,22.27
2022-11-14T21:38:25.413Z,21.37
2022-11-14T21:41:12.337Z,18.67
2022-11-14T21:43:59.733Z,21.53
2022-11-14T21:46:45.804Z,18.80
2022-11-14T21:49:33.403Z,21.17
2022-11-14T21:52:19.734Z,20.67
2022-11-14T21:55:05.929Z,17.67
2022-11-14T22:01:28.315Z,21.20
2022-11-14T22:04:14.352Z,20.00
2022-11-14T22:07:02.077Z,20.57
2022-11-14T22:09:47.860Z,16.47
2022-11-14T22:12:40.408Z,20.23
2022-11-14T22:15:26.164Z,21.70
2022-11-14T22:18:12.209Z,22.10
2022-11-14T22:20:58.129Z,22.90
2022-11-14T22:23:45.365Z,23.60
2022-11-14T22:26:31.285Z,19.93
2022-11-14T22:29:26.313Z,22.53
2022-11-14T22:32:12.249Z,17.27
2022-11-14T22:34:58.137Z,24.53
2022-11-14T22:37:52.982Z,26.53
2022-11-14T22:41:10.460Z,24.17
2022-11-14T22:43:58.016Z,23.37
2022-11-14T22:46:44.066Z,24.00
2022-11-14T22:49:30.093Z,21.10
2022-11-14T22:52:15.812Z,24.10
2022-11-14T22:55:02.033Z,24.10
2022-11-14T22:57:48.007Z,24.40
2022-11-14T23:00:34.935Z,24.23
2022-11-14T23:03:21.086Z,25.93
2022-11-14T23:06:07.889Z,20.50
2022-11-14T23:08:54.392Z,26.43
2022-11-14T23:11:40.418Z,26.20
2022-11-14T23:14:26.146Z,23.07
2022-11-14T23:17:13.701Z,25.87
2022-11-14T23:19:59.389Z,23.03
2022-11-14T23:22:45.538Z,23.43
2022-11-14T23:25:31.612Z,24.40
2022-11-14T23:28:17.652Z,23.20
2022-11-14T23:31:03.558Z,23.27
2022-11-14T23:33:51.224Z,21.87
2022-11-14T23:36:37.293Z,24.90
2022-11-14T23:39:26.072Z,23.47
2022-11-14T23:42:11.951Z,23.47
2022-11-14T23:44:57.944Z,23.83
2022-11-14T23:47:44.199Z,22.63
2022-11-14T23:50:31.276Z,22.10
2022-11-14T23:53:17.007Z,23.77
2022-11-14T23:56:03.113Z,23.43
2022-11-14T23:58:48.806Z,21.07
